Detall de PIREP

Printer-friendly versionPDF version

[2012/10/05 10:31:00]
Flight IATA:CT2302
Pilot Number:012
Company ICAO:CAT
Aircraft Type:A343/E
PAX:295
Departing Airport: LIEA
Destination Airport: LIBR
Alternate Airport:LIBD
Online: VATSIM
Route:KOLUS UM603 SOR UM742 LUXIL L995 ROBOT
Flight Level:F350
No Slew and time accel
No pause
Crash detect
Detect pilot in Cockpit between each 30 and 45 minutes
10:31 Zero fuel Weight: 370824 Lbs, Fuel Weight: 48657 Lbs
10:31 VATSIM:LIEA 050950Z 02005KT 350V110 CAVOK 25/15 Q1020
10:31 VATSIM:LIBR 050945Z 32013KT 9999 BKN015 23/19 Q1020 NOSIG
10:31 VOICE CATALONIAN
10:31 Parking Brakes off
10:35 Take-off
10:35 Take off Weight: 418259 Lbs
10:35 Wind: 041º @ 005 Knots Heading: 203º
10:35 POS N40º 37´ 38´´ E008º 17´ 17´´
10:35 Gear Up: 175 Knots
10:35 Flaps:2 at 175 Knots
10:36 Flaps:1 at 184 Knots
10:36 Flaps:0 at 202 Knots
10:50 Wind:001º@004 Knots Heading: 084º Ground Speed: 457 Knots Altitude 33727 ft
10:50 TOC
10:50 Fuel Weight: 40250 Lb
11:05 Wind:345º@013 Knots Heading: 085º Ground Speed: 478 Knots Altitude 35232 ft
11:20 Wind:340º@019 Knots Heading: 080º Ground Speed: 479 Knots Altitude 35249 ft
11:21 TOD
11:21 Fuel Weight: 33135 Lb
11:35 Wind:329º@003 Knots Heading: 103º Ground Speed: 286 Knots Altitude 10196 ft
11:42 Flaps:1 at 228 Knots
11:43 Flaps:3 at 211 Knots
11:45 Gear Down: 156 Knots
11:45 Flaps:4 at 154 Knots
11:45 Flaps:5 at 148 Knots
11:50 Wind:338º@012 Knots Heading: 317º Ground Speed: 125 Knots Altitude 853 ft
11:51 TouchDown:Rate -197 ft/min Speed: 131 Knots
11:51 VATSIM:LIBR 051115Z 34011KT 9999 BKN015 24/18 Q1020 NOSIG
11:51 Land
11:51 Wind:338º@012 Knots
11:51 Heading: 320º
11:51 Flight Duration: 01:16
11:51 Landing Weight: 398729 Lbs
11:51 POS N40º 39´ 53´´ E017º 56´ 20´´
11:55 Parking brakes on
11:55 Block to Block Duration: 01:24
11:55 Final Fuel: 27297 Lbls
11:55 Spent Fuel: 21360 Lbls
11:55 Flight Length: 485 NM
11:55 TOD Land Length: 142 NM

Exportar CSV

Powered by Drupal - Modified by Danger4k